Latest Weather Observations for Mackay

IDQ60801

Issued at 6:32 am EST Saturday 7 May 2016 (issued every 30 minutes, with the page automatically refreshed every 10 minutes)

About weather observations | Map of weather stations | Latest weather observations for QLD | Other Formats
Station Details ID: 033119 Name: MACKAY M.O Lat: -21.12 Lon: 149.22 Height: 30.26 m
Data from the previous 72 hours. | See also: Recent months at Mackay
Date/Time
EST
Temp
°C
App
Temp
°C
Dew
Point
Rel
Hum
%
Delta-T
°C
Wind Press
QNH
hPa
Press
MSL
hPa
Rain
since 9 am
mm
Dir
 
Spd
km/h
Gust
km/h
Spd
kts
Gust
kts
07/06:30am 19.7 20.5 19.1 96 0.4 SSW 13 17 7 9 1015.8 1015.6 0.0
07/06:00am 19.8 20.6 19.0 95 0.5 SW 13 17 7 9 1015.6 1015.4 0.0
07/05:30am 19.8 20.6 19.0 95 0.5 SW 13 15 7 8 1015.3 1015.1 0.0
07/05:00am 19.8 21.1 19.2 96 0.4 SW 11 15 6 8 1015.1 1014.9 0.0
07/04:30am 20.0 20.9 19.2 95 0.5 SW 13 17 7 9 1015.1 1014.9 0.0
07/04:00am 20.3 21.7 19.5 95 0.5 SW 11 15 6 8 1015.0 1014.8 0.0
07/03:30am 20.9 22.1 19.8 93 0.7 SSW 13 17 7 9 1014.9 1014.7 0.0
07/03:00am 20.8 22.3 19.7 93 0.7 SW 11 13 6 7 1015.1 1014.9 0.0
07/02:30am 21.1 23.0 19.8 92 0.8 SW 9 13 5 7 1015.2 1015.0 0.0
07/02:00am 22.6 24.8 20.4 87 1.4 S 9 15 5 8 1015.7 1015.5 0.0
07/01:30am 23.9 25.8 19.7 77 2.7 SE 9 15 5 8 1015.7 1015.5 0.0
07/01:00am 23.8 25.4 19.9 79 2.5 SSE 11 17 6 9 1016.2 1016.0 0.0
07/12:30am 24.0 25.6 20.0 78 2.6 ESE 11 19 6 10 1016.1 1015.9 0.0
07/12:00am 24.0 25.2 19.8 77 2.7 SE 13 20 7 11 1016.5 1016.3 0.0
 
Date/Time
EST
Temp
°C
App
Temp
°C
Dew
Point
Rel
Hum
%
Delta-T
°C
Wind Press
QNH
hPa
Press
MSL
hPa
Rain
since 9 am
mm
Dir
 
Spd
km/h
Gust
km/h
Spd
kts
Gust
kts
06/11:30pm 24.2 25.6 19.5 75 3.0 SE 11 19 6 10 1016.9 1016.7 0.0
06/11:00pm 24.2 25.4 19.9 77 2.8 SE 13 20 7 11 1017.0 1016.8 0.0
06/10:30pm 24.1 25.5 20.4 80 2.4 SE 13 24 7 13 1017.2 1017.0 0.0
06/10:00pm 24.3 25.7 20.3 78 2.6 SE 13 20 7 11 1017.1 1016.9 0.0
06/09:30pm 24.2 26.0 20.4 79 2.5 SE 11 17 6 9 1017.1 1016.9 0.0
06/09:00pm 24.5 25.7 20.0 76 2.9 SE 13 19 7 10 1016.9 1016.7 0.0
06/08:30pm 24.3 25.8 20.5 79 2.5 SSE 13 19 7 10 1017.0 1016.8 0.0
06/08:00pm 24.5 26.0 20.5 78 2.6 SE 13 20 7 11 1016.7 1016.5 0.0
06/07:30pm 24.4 25.8 20.4 78 2.6 SE 13 20 7 11 1016.2 1016.0 0.0
06/07:00pm 24.4 25.8 20.4 78 2.6 ESE 13 19 7 10 1015.9 1015.7 0.0
06/06:30pm 24.5 25.6 20.5 78 2.6 SE 15 20 8 11 1015.6 1015.4 0.0
06/06:00pm 24.4 25.3 20.1 77 2.8 SE 15 24 8 13 1015.5 1015.3 0.0
06/05:30pm 24.4 25.4 20.2 77 2.7 SE 15 26 8 14 1015.2 1015.0 0.0
06/05:00pm 24.5 25.8 20.8 80 2.4 SE 15 24 8 13 1015.0 1014.8 0.0
06/04:30pm 24.7 25.9 20.7 78 2.6 SE 15 26 8 14 1014.8 1014.6 0.0
06/04:00pm 24.9 26.5 20.8 78 2.7 SSE 13 26 7 14 1014.5 1014.3 0.0
06/03:30pm 25.2 26.1 20.9 77 2.8 SE 17 26 9 14 1014.5 1014.3 0.0
06/03:00pm 25.6 26.6 21.1 76 3.0 SE 17 26 9 14 1014.3 1014.1 0.0
06/02:30pm 26.0 27.3 21.6 76 2.9 SE 17 26 9 14 1014.6 1014.4 0.0
06/02:00pm 24.8 26.2 21.0 79 2.5 SE 15 24 8 13 1014.8 1014.6 0.0
06/01:30pm 25.6 27.2 21.4 77 2.8 SE 15 26 8 14 1015.4 1015.2 0.0
06/01:00pm 25.6 26.6 21.1 76 3.0 SSE 17 26 9 14 1015.7 1015.5 0.0
06/12:30pm 26.3 27.2 21.6 75 3.1 SSE 19 26 10 14 1016.0 1015.8 0.0
06/12:00pm 25.2 25.6 20.9 77 2.8 SSE 20 30 11 16 1016.7 1016.5 0.0
06/11:30am 25.8 26.3 21.1 75 3.1 SSE 20 33 11 18 1017.2 1017.0 0.0
06/11:00am 26.1 26.9 21.4 75 3.1 SSE 19 28 10 15 1017.4 1017.2 0.0
06/10:30am 25.5 26.3 21.7 79 2.5 SSE 20 30 11 16 1017.5 1017.3 0.0
06/10:00am 25.6 26.7 22.0 80 2.4 SSE 19 30 10 16 1017.6 1017.4 0.0
06/09:30am 25.4 26.8 21.8 80 2.4 SSE 17 24 9 13 1017.8 1017.7 0.0
06/09:00am 24.4 25.6 21.4 83 2.0 S 17 24 9 13 1017.9 1017.8 -
06/08:30am 23.4 25.2 21.1 87 1.5 SSW 13 20 7 11 1017.5 1017.3 -
06/08:00am 22.8 24.8 20.8 88 1.3 SW 11 17 6 9 1017.2 1017.0 -
06/07:30am 22.4 24.4 20.7 90 1.1 SW 11 15 6 8 1016.8 1016.6 -
06/07:00am 22.2 23.8 20.7 91 1.0 SSW 13 17 7 9 1016.4 1016.2 -
06/06:30am 21.8 23.1 20.2 91 1.0 SW 13 17 7 9 1015.9 1015.7 -
06/06:00am 21.8 23.2 20.4 92 0.9 SSW 13 17 7 9 1015.6 1015.4 -
06/05:30am 22.0 23.4 20.3 90 1.1 SSW 13 17 7 9 1015.4 1015.2 -
06/05:00am 22.0 23.9 20.5 91 1.0 SSW 11 13 6 7 1015.3 1015.1 -
06/04:30am 21.9 24.1 20.4 91 1.0 SW 9 13 5 7 1015.0 1014.8 -
06/04:00am 22.0 23.9 20.5 91 1.0 SW 11 15 6 8 1015.2 1015.0 -
06/03:30am 22.2 24.5 20.7 91 1.0 SSW 9 11 5 6 1015.0 1014.8 -
06/03:00am 24.1 26.3 21.1 83 2.0 SE 11 17 6 9 1015.4 1015.2 -
06/02:30am 24.3 26.6 21.3 83 2.0 SE 11 17 6 9 1015.6 1015.4 -
06/02:00am 24.4 26.6 21.2 82 2.1 SE 11 19 6 10 1015.6 1015.4 -
06/01:30am 24.6 26.9 20.6 78 2.6 ESE 9 15 5 8 1015.9 1015.7 -
06/01:00am 24.7 26.6 20.6 78 2.7 ESE 11 17 6 9 1015.9 1015.7 -
06/12:30am 24.7 26.1 20.4 77 2.8 ESE 13 20 7 11 1016.3 1016.1 -
06/12:00am 24.7 26.1 20.4 77 2.8 ESE 13 19 7 10 1016.4 1016.2 -
 
Date/Time
EST
Temp
°C
App
Temp
°C
Dew
Point
Rel
Hum
%
Delta-T
°C
Wind Press
QNH
hPa
Press
MSL
hPa
Rain
since 9 am
mm
Dir
 
Spd
km/h
Gust
km/h
Spd
kts
Gust
kts
05/11:30pm 24.9 26.6 20.1 74 3.1 ESE 11 17 6 9 1016.8 1016.6 -
05/11:00pm 25.1 26.3 19.8 72 3.4 ESE 13 20 7 11 1017.1 1016.9 -
05/10:30pm 25.0 26.2 19.9 73 3.3 ESE 13 20 7 11 1017.4 1017.2 -
05/10:00pm 24.9 26.2 20.1 74 3.1 ESE 13 20 7 11 1017.4 1017.2 -
05/09:30pm 24.9 26.3 20.3 75 3.0 ESE 13 24 7 13 1017.6 1017.4 -
05/09:00pm 24.9 26.2 20.8 78 2.7 ESE 15 24 8 13 1017.3 1017.1 -
05/08:30pm 24.9 25.7 20.6 77 2.8 SE 17 26 9 14 1017.3 1017.1 -
05/08:00pm 25.1 26.4 20.8 77 2.8 ESE 15 24 8 13 1017.1 1016.9 -
05/07:30pm 25.1 26.9 21.2 79 2.6 ESE 13 22 7 12 1016.7 1016.5 -
05/07:00pm 25.0 26.2 21.5 81 2.3 ESE 17 26 9 14 1016.4 1016.2 -
05/06:30pm 25.1 26.7 21.5 80 2.4 ESE 15 24 8 13 1016.0 1015.8 0.2
05/06:00pm 25.3 26.6 20.9 76 2.9 ESE 15 24 8 13 1015.6 1015.4 0.2
05/05:30pm 25.1 26.8 21.6 81 2.3 ESE 15 24 8 13 1015.2 1015.0 0.2
05/05:00pm 25.2 27.0 21.9 82 2.2 SE 15 26 8 14 1015.0 1014.8 0.2
05/04:30pm 25.5 26.8 21.7 79 2.5 SE 17 24 9 13 1014.8 1014.6 0.2
05/04:00pm 25.7 26.9 21.5 77 2.8 ESE 17 26 9 14 1014.8 1014.6 0.2
05/03:30pm 25.9 27.2 21.7 77 2.8 SE 17 26 9 14 1014.9 1014.7 0.2
05/03:21pm 26.0 27.6 22.1 79 2.6 SE 17 28 9 15 1014.8 1014.6 0.2
05/03:00pm 25.9 27.7 22.5 81 2.3 SE 17 28 9 15 1014.7 1014.5 0.2
05/02:34pm 25.2 27.3 22.4 84 1.9 SE 15 26 8 14 1014.8 1014.6 0.2
05/02:30pm 25.4 27.6 22.6 84 1.9 SE 15 26 8 14 1014.9 1014.7 0.2
05/02:00pm 26.4 28.2 22.5 79 2.6 SE 17 26 9 14 1014.9 1014.7 0.2
05/01:30pm 26.2 28.2 22.3 79 2.6 SE 15 24 8 13 1015.1 1014.9 0.2
05/01:00pm 26.3 28.3 22.3 78 2.7 SE 15 26 8 14 1015.6 1015.4 0.2
05/12:30pm 26.8 29.1 22.7 78 2.8 SSE 15 24 8 13 1016.2 1016.0 0.2
05/12:00pm 26.4 28.1 22.4 78 2.7 SSE 17 26 9 14 1016.7 1016.5 0.2
05/11:30am 26.3 27.9 22.1 77 2.8 SSE 17 26 9 14 1017.0 1016.8 0.2
05/11:00am 26.4 29.1 22.2 78 2.8 SSE 11 19 6 10 1017.4 1017.2 0.2
05/10:30am 26.0 27.9 22.0 78 2.7 SSE 15 22 8 12 1017.7 1017.5 0.2
05/10:00am 25.8 28.2 22.2 80 2.4 SSE 13 20 7 11 1018.0 1017.9 0.0
05/09:30am 25.2 27.5 22.1 83 2.1 SSE 13 17 7 9 1018.1 1018.0 0.0
05/09:00am 24.3 26.1 21.9 86 1.6 S 15 20 8 11 1017.9 1017.8 1.8
05/08:30am 23.9 26.2 21.3 85 1.7 SSW 11 20 6 11 1017.9 1017.8 1.8
05/08:00am 23.0 24.9 21.3 90 1.1 SSW 13 17 7 9 1017.4 1017.2 1.8
05/07:30am 22.1 24.3 21.2 95 0.6 SSW 11 15 6 8 1017.1 1016.9 1.8
05/07:14am 21.7 23.9 21.1 96 0.4 SSW 11 15 6 8 1017.0 1016.8 1.8
05/07:03am 21.5 23.6 21.0 97 0.3 SSW 11 17 6 9 1016.8 1016.6 1.8
05/07:00am 21.4 23.6 21.1 98 0.2 SSW 11 17 6 9 1016.7 1016.5 1.8
05/06:53am 21.4 23.1 20.9 97 0.3 SSW 13 15 7 8 1016.7 1016.5 1.8
05/06:30am 21.4 23.1 20.9 97 0.3 SSW 13 17 7 9 1016.5 1016.3 1.8
05/06:00am 21.8 24.1 21.3 97 0.3 SSW 11 17 6 9 1016.1 1015.9 1.8
05/05:42am 22.1 24.5 21.5 96 0.4 SSW 11 15 6 8 1016.1 1015.9 1.8
05/05:30am 22.3 24.7 21.5 95 0.5 SSW 11 13 6 7 1016.0 1015.8 1.8
05/05:00am 23.1 24.8 21.6 91 1.0 SSE 15 24 8 13 1015.7 1015.5 1.8
05/04:30am 22.7 23.9 21.5 93 0.8 SSE 17 26 9 14 1015.5 1015.3 1.8
05/04:21am 22.7 23.7 21.8 95 0.6 SSE 19 28 10 15 1015.5 1015.3 1.8
05/04:00am 22.5 24.1 22.2 98 0.2 SSE 17 28 9 15 1015.5 1015.3 1.8
05/03:35am 22.1 24.3 21.8 98 0.2 S 13 19 7 10 1015.3 1015.1 1.8
05/03:30am 21.7 23.6 21.4 98 0.2 SSW 13 17 7 9 1015.3 1015.1 1.8
05/03:00am 21.6 23.9 21.3 98 0.2 SW 11 13 6 7 1015.0 1014.8 1.8
05/02:30am 21.7 24.0 21.4 98 0.2 SW 11 15 6 8 1015.1 1014.9 1.8
05/02:00am 21.7 24.4 21.4 98 0.2 SW 9 13 5 7 1015.2 1015.0 1.8
05/01:30am 21.8 24.5 21.3 97 0.3 WSW 9 13 5 7 1015.5 1015.3 1.8
05/01:00am 21.9 24.2 21.4 97 0.3 WSW 11 13 6 7 1015.6 1015.4 1.8
05/12:30am 22.0 24.4 21.5 97 0.3 SW 11 13 6 7 1015.8 1015.6 1.8
05/12:00am 22.1 24.1 21.6 97 0.3 SW 13 15 7 8 1015.8 1015.6 1.8
 
Date/Time
EST
Temp
°C
App
Temp
°C
Dew
Point
Rel
Hum
%
Delta-T
°C
Wind Press
QNH
hPa
Press
MSL
hPa
Rain
since 9 am
mm
Dir
 
Spd
km/h
Gust
km/h
Spd
kts
Gust
kts
04/11:30pm 22.3 24.8 21.8 97 0.3 SW 11 15 6 8 1016.0 1015.8 1.8
04/11:00pm 22.3 25.2 21.7 96 0.4 WSW 9 11 5 6 1016.3 1016.1 1.8
04/10:30pm 22.4 24.9 21.8 96 0.4 WSW 11 15 6 8 1016.7 1016.5 1.8
04/10:00pm 22.6 25.4 22.3 98 0.2 SW 11 13 6 7 1016.7 1016.5 1.8
04/09:30pm 22.8 25.9 22.2 96 0.4 WSW 9 15 5 8 1016.8 1016.6 1.8
04/09:00pm 22.7 26.4 22.2 97 0.3 W 6 9 3 5 1016.8 1016.6 1.8
04/08:30pm 22.7 25.9 22.4 98 0.2 WSW 9 13 5 7 1016.7 1016.5 1.8
04/08:00pm 22.9 26.6 22.6 98 0.2 W 7 11 4 6 1016.5 1016.3 1.8
04/07:30pm 23.0 26.8 22.7 98 0.2 WSW 7 11 4 6 1016.2 1016.0 1.8
04/07:00pm 23.2 27.2 23.1 99 0.1 SW 7 9 4 5 1015.7 1015.5 1.8
04/06:59pm 23.3 27.2 23.0 98 0.2 SW 7 9 4 5 1015.7 1015.5 1.8
04/06:40pm 23.2 26.7 22.9 98 0.2 SW 9 11 5 6 1015.4 1015.2 1.8
04/06:30pm 23.2 27.1 22.9 98 0.2 WSW 7 9 4 5 1015.4 1015.2 1.8
04/06:00pm 23.3 27.2 22.9 98 0.3 SW 7 9 4 5 1014.9 1014.7 1.8
04/05:30pm 23.7 27.7 23.1 96 0.4 SSW 7 9 4 5 1014.4 1014.2 1.8
04/05:00pm 23.9 28.2 23.3 96 0.4 W 6 11 3 6 1014.2 1014.0 1.8
04/04:30pm 23.9 28.2 23.6 98 0.2 SW 7 9 4 5 1014.0 1013.8 1.8
04/04:00pm 24.1 28.5 23.5 96 0.4 SW 6 7 3 4 1013.8 1013.6 1.8
04/03:30pm 24.1 28.4 23.7 98 0.3 SW 7 9 4 5 1013.7 1013.5 1.8
04/03:00pm 24.0 27.2 23.0 94 0.7 S 11 15 6 8 1013.6 1013.4 1.4
04/02:30pm 25.2 29.9 23.9 92 0.9 SE 6 7 3 4 1013.7 1013.5 0.6
04/02:00pm 26.2 30.7 23.0 82 2.2 NE 4 9 2 5 1013.6 1013.4 0.0
04/01:30pm 27.5 31.5 23.7 80 2.6 NE 9 15 5 8 1013.2 1013.0 0.0
04/01:00pm 29.2 33.1 24.2 74 3.5 NNE 11 17 6 9 1013.7 1013.5 0.0
04/12:30pm 28.5 32.2 23.9 76 3.2 NNE 11 15 6 8 1014.1 1013.9 0.0
04/12:00pm 28.8 33.1 24.2 76 3.2 NNE 9 19 5 10 1014.5 1014.3 0.0
04/11:30am 29.2 33.5 24.2 74 3.5 NE 9 19 5 10 1014.9 1014.7 0.0
04/11:00am 29.6 33.4 24.1 72 3.8 NE 11 15 6 8 1015.1 1014.9 0.0
04/10:30am 29.1 33.7 24.2 75 3.4 NE 7 15 4 8 1015.4 1015.2 0.0
04/10:06am 28.6 33.0 23.8 75 3.3 N 7 11 4 6 1015.6 1015.4 0.0
04/10:00am 28.2 32.3 23.2 74 3.4 NNW 7 11 4 6 1015.7 1015.5 0.0
04/09:30am 27.5 31.2 22.2 73 3.6 NW 6 13 3 7 1015.9 1015.7 0.0
04/09:00am 26.4 29.4 21.9 76 3.0 NW 9 15 5 8 1016.1 1015.9 0.2
04/08:30am 26.1 29.9 22.7 81 2.3 NNW 7 11 4 6 1015.8 1015.6 0.2
04/08:00am 24.5 28.1 22.4 88 1.4 WNW 7 15 4 8 1015.7 1015.5 0.2
04/07:30am 23.1 26.9 22.4 96 0.5 NW 6 7 3 4 1015.5 1015.3 0.2
04/07:00am 22.8 26.8 22.0 95 0.5 W 4 9 2 5 1015.0 1014.8 0.2

Other Formats:

Comma delimited format used in spreadsheet applications
http://www.bom.gov.au/fwo/IDQ60801/IDQ60801.94367.axf

JavaScript Object Notation format (JSON) in row-major order
http://www.bom.gov.au/fwo/IDQ60801/IDQ60801.94367.json